createdAt,value
2023-05-21T00:00:36.002Z,60.48
2023-05-21T00:06:01.622Z,60.50
2023-05-21T00:11:04.937Z,60.59
2023-05-21T00:16:08.058Z,60.69
2023-05-21T00:21:12.355Z,60.42
2023-05-21T00:26:15.662Z,60.65
2023-05-21T00:31:19.250Z,60.80
2023-05-21T00:36:23.820Z,60.49
2023-05-21T00:41:26.799Z,60.51
2023-05-21T00:46:30.115Z,60.80
2023-05-21T00:51:33.442Z,61.09
2023-05-21T00:56:37.017Z,61.01
2023-05-21T01:01:40.263Z,61.07
2023-05-21T01:06:43.131Z,61.13
2023-05-21T01:11:51.953Z,60.86
2023-05-21T01:16:55.226Z,61.10
2023-05-21T01:22:06.431Z,62.08
2023-05-21T01:27:10.680Z,63.44
2023-05-21T01:32:42.750Z,66.51
2023-05-21T01:37:58.125Z,55.76
2023-05-21T01:43:02.205Z,52.95
2023-05-21T01:48:07.577Z,54.28
2023-05-21T01:53:10.799Z,56.42
2023-05-21T01:58:14.315Z,58.26
2023-05-21T02:03:19.633Z,59.39
2023-05-21T02:08:23.523Z,60.30
2023-05-21T02:13:27.042Z,59.49
2023-05-21T02:18:30.148Z,59.75
2023-05-21T02:23:33.111Z,60.03
2023-05-21T02:28:36.539Z,61.14
2023-05-21T02:33:41.938Z,66.16
2023-05-21T02:38:45.529Z,58.29
2023-05-21T02:43:48.492Z,53.55
2023-05-21T02:48:51.436Z,54.86
2023-05-21T02:53:54.415Z,56.33
2023-05-21T02:58:57.389Z,57.14
2023-05-21T03:04:00.591Z,58.11
2023-05-21T03:09:04.813Z,59.75
2023-05-21T03:14:07.789Z,60.72
2023-05-21T03:19:11.659Z,61.09
2023-05-21T03:24:15.306Z,61.31
2023-05-21T03:29:18.333Z,61.37
2023-05-21T03:34:21.593Z,60.30
2023-05-21T03:39:24.477Z,57.26
2023-05-21T03:44:28.101Z,53.60
2023-05-21T03:49:31.073Z,50.98
2023-05-21T03:54:34.035Z,48.70
2023-05-21T03:59:37.090Z,46.10
2023-05-21T04:04:40.246Z,43.05
2023-05-21T04:09:43.246Z,42.01
2023-05-21T04:14:46.674Z,42.40
2023-05-21T04:19:49.634Z,44.23
2023-05-21T04:24:54.589Z,45.57
2023-05-21T04:29:58.174Z,45.43
2023-05-21T04:35:02.147Z,43.98
2023-05-21T04:40:06.804Z,42.10
2023-05-21T04:45:10.526Z,39.01
2023-05-21T04:50:13.667Z,36.87
2023-05-21T04:55:19.146Z,36.63
2023-05-21T05:00:22.711Z,37.45
2023-05-21T05:05:26.235Z,39.60
2023-05-21T05:10:29.236Z,41.04
2023-05-21T05:15:32.199Z,43.45
2023-05-21T05:20:35.187Z,44.35
2023-05-21T05:25:41.178Z,45.10
2023-05-21T05:30:44.423Z,46.26
2023-05-21T05:35:47.552Z,47.35
2023-05-21T05:40:50.559Z,48.26
2023-05-21T05:45:54.690Z,49.44
2023-05-21T05:50:57.697Z,49.19
2023-05-21T05:56:00.668Z,49.51
2023-05-21T06:01:03.672Z,49.73
2023-05-21T06:06:06.543Z,49.73
2023-05-21T06:11:11.012Z,49.53
2023-05-21T06:16:14.073Z,51.00
2023-05-21T06:21:17.164Z,49.77
2023-05-21T06:26:20.168Z,50.59
2023-05-21T06:31:23.060Z,51.43
2023-05-21T06:36:29.887Z,51.43
2023-05-21T06:41:33.138Z,51.48
2023-05-21T06:46:36.462Z,52.08
2023-05-21T06:51:39.512Z,52.24
2023-05-21T06:56:42.495Z,53.07
2023-05-21T07:01:45.568Z,53.35
2023-05-21T07:06:48.658Z,52.95
2023-05-21T07:11:53.087Z,52.33
2023-05-21T07:16:56.127Z,52.74
2023-05-21T07:21:59.188Z,52.61
2023-05-21T07:27:06.478Z,53.56
2023-05-21T07:32:14.533Z,53.31
2023-05-21T07:37:17.712Z,53.74
2023-05-21T07:42:20.821Z,54.31
2023-05-21T07:47:23.867Z,53.11
2023-05-21T07:52:26.940Z,53.55
2023-05-21T07:57:29.973Z,54.15
2023-05-21T08:02:32.982Z,53.77
2023-05-21T08:07:36.516Z,54.58
2023-05-21T08:12:39.546Z,52.86
2023-05-21T08:17:42.572Z,53.79
2023-05-21T08:22:45.542Z,54.21
2023-05-21T08:27:50.383Z,54.58
2023-05-21T08:32:55.380Z,53.36
2023-05-21T08:37:59.012Z,53.59
2023-05-21T08:43:02.017Z,54.29
2023-05-21T08:48:06.657Z,53.53
2023-05-21T08:53:19.849Z,53.25
2023-05-21T08:58:33.844Z,53.54
2023-05-21T09:03:40.631Z,52.40
2023-05-21T09:08:46.194Z,53.69
2023-05-21T09:13:51.474Z,53.24
2023-05-21T09:18:54.511Z,53.00
2023-05-21T09:24:00.020Z,52.58
2023-05-21T09:29:08.871Z,52.51
2023-05-21T09:34:15.555Z,53.64
2023-05-21T09:39:29.713Z,52.23
2023-05-21T09:44:38.723Z,52.30
2023-05-21T09:49:44.340Z,51.34
2023-05-21T09:54:47.294Z,50.56
2023-05-21T09:59:50.584Z,51.18
2023-05-21T10:04:55.740Z,49.54
2023-05-21T10:10:01.910Z,49.10
2023-05-21T10:15:09.415Z,48.28
2023-05-21T10:20:13.231Z,49.29
2023-05-21T10:25:17.527Z,48.36
2023-05-21T10:30:25.020Z,45.88
2023-05-21T10:35:29.000Z,46.03
2023-05-21T10:40:33.996Z,47.07
2023-05-21T10:45:48.211Z,45.87
2023-05-21T10:51:23.993Z,46.38
2023-05-21T10:56:48.014Z,46.81
2023-05-21T11:01:53.261Z,46.42
2023-05-21T11:07:00.471Z,44.98
2023-05-21T11:12:04.944Z,45.14
2023-05-21T11:17:14.675Z,45.50
2023-05-21T11:22:31.010Z,46.53
2023-05-21T11:27:36.023Z,46.00
2023-05-21T11:32:41.276Z,45.89
2023-05-21T11:37:53.646Z,44.94
2023-05-21T11:42:57.401Z,43.57
2023-05-21T11:48:00.750Z,45.47
2023-05-21T11:53:03.800Z,46.36
2023-05-21T11:58:09.205Z,46.00
2023-05-21T12:03:14.616Z,45.82
2023-05-21T12:08:28.262Z,45.51
2023-05-21T12:13:32.218Z,45.76
2023-05-21T12:18:37.274Z,45.89
2023-05-21T12:23:40.238Z,45.39
2023-05-21T12:28:43.426Z,45.83
2023-05-21T12:33:51.516Z,46.47
2023-05-21T12:38:55.312Z,46.26
2023-05-21T12:43:58.312Z,45.17
2023-05-21T12:49:01.435Z,45.10
2023-05-21T12:54:04.711Z,46.25
2023-05-21T12:59:13.614Z,46.54
2023-05-21T13:04:20.309Z,46.56
2023-05-21T13:09:23.293Z,45.55
2023-05-21T13:14:26.267Z,45.31
2023-05-21T13:19:29.431Z,45.73
2023-05-21T13:24:32.555Z,42.51
2023-05-21T13:29:38.150Z,40.50
2023-05-21T13:34:41.198Z,41.74
2023-05-21T13:39:44.173Z,42.88
2023-05-21T13:44:48.165Z,41.19
2023-05-21T13:49:51.711Z,38.92
2023-05-21T13:54:54.862Z,40.23
2023-05-21T13:59:59.602Z,41.53
2023-05-21T14:05:02.637Z,40.89
2023-05-21T14:10:06.404Z,40.31
2023-05-21T14:15:10.310Z,39.68
2023-05-21T14:20:13.429Z,41.57
2023-05-21T14:25:16.371Z,41.66
2023-05-21T14:30:19.316Z,40.50
2023-05-21T14:35:24.935Z,41.61
2023-05-21T14:40:29.875Z,42.77
2023-05-21T14:45:35.623Z,42.92
2023-05-21T14:50:39.740Z,43.21
2023-05-21T14:55:43.008Z,44.16
2023-05-21T15:00:46.196Z,43.27
2023-05-21T15:05:49.280Z,42.93
2023-05-21T15:10:52.659Z,43.30
2023-05-21T15:15:58.417Z,43.54
2023-05-21T15:21:01.473Z,42.47
2023-05-21T15:26:04.653Z,41.58
2023-05-21T15:31:07.648Z,43.04
2023-05-21T15:36:10.895Z,43.07
2023-05-21T15:41:13.916Z,43.57
2023-05-21T15:46:16.920Z,43.90
2023-05-21T15:51:20.178Z,43.93
2023-05-21T15:56:23.152Z,44.15
2023-05-21T16:01:27.653Z,44.21
2023-05-21T16:06:31.677Z,43.48
2023-05-21T16:11:35.468Z,43.70
2023-05-21T16:16:39.450Z,43.34
2023-05-21T16:21:45.514Z,43.33
2023-05-21T16:26:49.567Z,43.40
2023-05-21T16:31:52.587Z,43.12
2023-05-21T16:36:56.512Z,44.32
2023-05-21T16:41:59.893Z,44.44
2023-05-21T16:47:04.443Z,44.68
2023-05-21T16:52:07.408Z,44.73
2023-05-21T16:57:10.253Z,44.62
2023-05-21T17:02:16.323Z,45.11
2023-05-21T17:07:19.847Z,45.91
2023-05-21T17:12:22.924Z,45.89
2023-05-21T17:17:26.024Z,46.19
2023-05-21T17:22:29.132Z,46.36
2023-05-21T17:27:32.557Z,46.70
2023-05-21T17:32:36.069Z,47.08
2023-05-21T17:37:39.069Z,45.70
2023-05-21T17:42:41.958Z,45.63
2023-05-21T17:47:45.049Z,45.33
2023-05-21T17:52:48.034Z,45.15
2023-05-21T17:57:51.028Z,45.26
2023-05-21T18:02:54.110Z,45.12
2023-05-21T18:07:57.224Z,45.24
2023-05-21T18:13:00.058Z,45.30
2023-05-21T18:18:03.253Z,45.30
2023-05-21T18:23:06.289Z,45.51
2023-05-21T18:28:10.197Z,45.79
2023-05-21T18:33:15.296Z,45.96
2023-05-21T18:38:18.349Z,46.32
2023-05-21T18:43:21.400Z,46.54
2023-05-21T18:48:24.407Z,46.62
2023-05-21T18:53:27.798Z,47.08
2023-05-21T18:58:30.968Z,47.15
2023-05-21T19:03:33.949Z,47.40
2023-05-21T19:08:36.961Z,47.48
2023-05-21T19:13:39.949Z,47.68
2023-05-21T19:18:43.869Z,47.82
2023-05-21T19:23:53.295Z,48.06
2023-05-21T19:28:57.198Z,48.23
2023-05-21T19:34:00.108Z,48.32
2023-05-21T19:39:04.333Z,48.24
2023-05-21T19:44:07.352Z,48.59
2023-05-21T19:49:14.670Z,48.64
2023-05-21T19:54:18.681Z,48.94
2023-05-21T19:59:21.721Z,48.95
2023-05-21T20:04:24.957Z,49.10
2023-05-21T20:09:28.119Z,49.26
2023-05-21T20:14:33.614Z,49.41
2023-05-21T20:19:37.863Z,49.48
2023-05-21T20:24:42.531Z,49.77
2023-05-21T20:29:46.561Z,49.94
2023-05-21T20:35:02.154Z,49.97
2023-05-21T20:40:07.262Z,51.84
2023-05-21T20:45:12.914Z,52.39
2023-05-21T20:50:17.786Z,51.92
2023-05-21T20:55:21.284Z,52.36
2023-05-21T21:00:24.731Z,53.34
2023-05-21T21:05:37.651Z,54.01
2023-05-21T21:10:42.493Z,55.14
2023-05-21T21:15:45.617Z,53.29
2023-05-21T21:20:49.888Z,52.91
2023-05-21T21:25:53.011Z,52.87
2023-05-21T21:30:56.165Z,52.98
2023-05-21T21:36:00.982Z,53.26
2023-05-21T21:41:03.992Z,53.52
2023-05-21T21:46:07.078Z,53.98
2023-05-21T21:51:10.416Z,53.93
2023-05-21T21:56:13.248Z,54.08
2023-05-21T22:01:16.193Z,54.20
2023-05-21T22:06:19.238Z,54.41
2023-05-21T22:11:22.846Z,54.80
2023-05-21T22:16:27.649Z,55.12
2023-05-21T22:21:33.201Z,55.28
2023-05-21T22:26:36.238Z,55.71
2023-05-21T22:31:39.306Z,55.80
2023-05-21T22:36:43.642Z,57.15
2023-05-21T22:41:46.705Z,57.87
2023-05-21T22:46:49.827Z,58.58
2023-05-21T22:51:54.358Z,58.42
2023-05-21T22:56:57.329Z,58.42
2023-05-21T23:02:00.453Z,58.99
2023-05-21T23:07:03.922Z,58.91
2023-05-21T23:12:07.887Z,58.76
2023-05-21T23:17:11.165Z,59.44
2023-05-21T23:22:14.031Z,59.93
2023-05-21T23:27:17.158Z,60.22
2023-05-21T23:32:20.247Z,60.74
2023-05-21T23:37:23.470Z,61.08
2023-05-21T23:42:26.471Z,61.11
2023-05-21T23:47:29.473Z,60.92
2023-05-21T23:52:32.480Z,60.57
2023-05-21T23:57:35.463Z,59.72
